Terminal Aerodrome Forecast
Issued by NWS Sterling, VA

Home | Current Version | Previous Version | Text Only | Print | Product List | Glossary On
Versions: 1 2 3 4 5 6 7 8 9 10 11 12 13 14 15 16 17 18 19 20 21 22 23 24 25 26 27 28
000
FTUS41 KLWX 241720
TAFBWI
TAF
KBWI 241720Z 2418/2524 02007KT P6SM SKC
     FM250000 VRB03KT P6SM SKC
     FM251300 23004KT P6SM FEW250
     FM251700 21008KT P6SM FEW050=

USA.gov is the U.S. government's official web portal to all federal, state and local government web resources and services.